sensor_id;sensor_type;location;lat;lon;timestamp;pressure;altitude;pressure_sealevel;temperature;humidity
77537;BME280;67783;51.656;16.106;2024-01-15T00:02:57;99668.01;;;4.37;68.04
77537;BME280;67783;51.656;16.106;2024-01-15T00:05:59;99665.55;;;4.34;68.35
77537;BME280;67783;51.656;16.106;2024-01-15T00:09:04;99648.95;;;4.31;68.56
77537;BME280;67783;51.656;16.106;2024-01-15T00:12:07;99651.73;;;4.29;68.20
77537;BME280;67783;51.656;16.106;2024-01-15T00:15:09;99648.42;;;4.26;68.61
77537;BME280;67783;51.656;16.106;2024-01-15T00:18:11;99650.22;;;4.25;68.55
77537;BME280;67783;51.656;16.106;2024-01-15T00:21:12;99642.46;;;4.22;68.75
77537;BME280;67783;51.656;16.106;2024-01-15T00:24:25;99639.25;;;4.17;69.35
77537;BME280;67783;51.656;16.106;2024-01-15T00:27:26;99633.08;;;4.16;68.93
77537;BME280;67783;51.656;16.106;2024-01-15T00:30:28;99629.01;;;4.11;69.23
77537;BME280;67783;51.656;16.106;2024-01-15T00:33:29;99626.36;;;4.11;68.98
77537;BME280;67783;51.656;16.106;2024-01-15T00:36:31;99624.68;;;4.10;69.42
77537;BME280;67783;51.656;16.106;2024-01-15T00:39:33;99616.04;;;4.06;69.21
77537;BME280;67783;51.656;16.106;2024-01-15T00:42:34;99619.96;;;4.01;69.70
77537;BME280;67783;51.656;16.106;2024-01-15T00:45:39;99609.52;;;3.98;70.52
77537;BME280;67783;51.656;16.106;2024-01-15T00:48:41;99593.61;;;3.98;69.52
77537;BME280;67783;51.656;16.106;2024-01-15T00:51:42;99593.61;;;3.98;69.82
77537;BME280;67783;51.656;16.106;2024-01-15T00:54:44;99598.75;;;4.01;69.42
77537;BME280;67783;51.656;16.106;2024-01-15T00:57:45;99592.59;;;4.00;69.67
77537;BME280;67783;51.656;16.106;2024-01-15T01:00:47;99588.13;;;4.01;69.61
77537;BME280;67783;51.656;16.106;2024-01-15T01:03:48;99583.77;;;4.00;69.68
77537;BME280;67783;51.656;16.106;2024-01-15T01:06:54;99577.62;;;3.99;70.40
77537;BME280;67783;51.656;16.106;2024-01-15T01:09:56;99578.39;;;4.01;69.58
77537;BME280;67783;51.656;16.106;2024-01-15T01:12:57;99580.19;;;4.01;69.96
77537;BME280;67783;51.656;16.106;2024-01-15T01:15:59;99582.83;;;4.01;69.63
77537;BME280;67783;51.656;16.106;2024-01-15T01:19:00;99581.98;;;4.00;69.84
77537;BME280;67783;51.656;16.106;2024-01-15T01:22:02;99583.58;;;4.03;69.62
77537;BME280;67783;51.656;16.106;2024-01-15T01:25:04;99586.02;;;4.06;69.76
77537;BME280;67783;51.656;16.106;2024-01-15T01:28:09;99568.43;;;4.05;70.09
77537;BME280;67783;51.656;16.106;2024-01-15T01:31:10;99564.07;;;4.04;69.73
77537;BME280;67783;51.656;16.106;2024-01-15T01:34:16;99550.80;;;4.04;69.88
77537;BME280;67783;51.656;16.106;2024-01-15T01:37:18;99550.80;;;4.04;69.65
77537;BME280;67783;51.656;16.106;2024-01-15T01:40:20;99550.04;;;4.02;69.69
77537;BME280;67783;51.656;16.106;2024-01-15T01:43:30;99537.85;;;3.99;70.09
77537;BME280;67783;51.656;16.106;2024-01-15T01:46:31;99541.27;;;4.01;69.66
77537;BME280;67783;51.656;16.106;2024-01-15T01:49:34;99532.54;;;3.99;69.99
77537;BME280;67783;51.656;16.106;2024-01-15T01:52:39;99527.89;;;4.03;69.67
77537;BME280;67783;51.656;16.106;2024-01-15T01:55:41;99530.54;;;4.03;69.82
77537;BME280;67783;51.656;16.106;2024-01-15T01:58:51;99523.44;;;4.03;70.31
77537;BME280;67783;51.656;16.106;2024-01-15T02:01:54;99515.40;;;4.05;69.71
77537;BME280;67783;51.656;16.106;2024-01-15T02:04:56;99511.97;;;4.03;70.03
77537;BME280;67783;51.656;16.106;2024-01-15T02:07:57;99498.52;;;4.06;69.67
77537;BME280;67783;51.656;16.106;2024-01-15T02:10:59;99497.56;;;4.07;69.71
77537;BME280;67783;51.656;16.106;2024-01-15T02:14:01;99493.98;;;4.08;69.57
77537;BME280;67783;51.656;16.106;2024-01-15T02:17:03;99498.42;;;4.07;69.51
77537;BME280;67783;51.656;16.106;2024-01-15T02:20:08;99480.92;;;4.05;69.57
77537;BME280;67783;51.656;16.106;2024-01-15T02:23:12;99484.30;;;4.07;69.40
77537;BME280;67783;51.656;16.106;2024-01-15T02:26:14;99476.35;;;4.07;69.44
77537;BME280;67783;51.656;16.106;2024-01-15T02:29:16;99455.14;;;4.07;69.35
77537;BME280;67783;51.656;16.106;2024-01-15T02:32:17;99472.96;;;4.05;69.38
77537;BME280;67783;51.656;16.106;2024-01-15T02:35:29;99451.75;;;4.05;69.43
77537;BME280;67783;51.656;16.106;2024-01-15T02:38:30;99424.26;;;4.06;69.29
77537;BME280;67783;51.656;16.106;2024-01-15T02:41:32;99440.38;;;4.03;69.33
77537;BME280;67783;51.656;16.106;2024-01-15T02:44:33;99426.27;;;4.02;69.24
77537;BME280;67783;51.656;16.106;2024-01-15T02:47:35;99438.80;;;4.00;69.39
77537;BME280;67783;51.656;16.106;2024-01-15T02:50:36;99440.38;;;4.03;69.26
77537;BME280;67783;51.656;16.106;2024-01-15T02:53:39;99432.44;;;4.03;69.28
77537;BME280;67783;51.656;16.106;2024-01-15T02:56:43;99436.02;;;4.02;69.36
77537;BME280;67783;51.656;16.106;2024-01-15T02:59:45;99422.59;;;4.05;69.27
77537;BME280;67783;51.656;16.106;2024-01-15T03:02:49;99420.97;;;4.02;69.31
77537;BME280;67783;51.656;16.106;2024-01-15T03:05:51;99428.84;;;4.04;69.21
77537;BME280;67783;51.656;16.106;2024-01-15T03:08:53;99416.52;;;4.03;69.22
77537;BME280;67783;51.656;16.106;2024-01-15T03:12:05;99413.87;;;4.03;69.21
77537;BME280;67783;51.656;16.106;2024-01-15T03:15:06;99409.42;;;4.03;69.08
77537;BME280;67783;51.656;16.106;2024-01-15T03:18:08;99402.52;;;4.01;69.23
77537;BME280;67783;51.656;16.106;2024-01-15T03:21:10;99400.82;;;4.00;69.25
77537;BME280;67783;51.656;16.106;2024-01-15T03:24:11;99407.28;;;3.96;69.64
77537;BME280;67783;51.656;16.106;2024-01-15T03:27:13;99409.18;;;3.94;69.48
77537;BME280;67783;51.656;16.106;2024-01-15T03:30:14;99397.74;;;3.93;69.55
77537;BME280;67783;51.656;16.106;2024-01-15T03:33:19;99401.21;;;3.94;69.61
77537;BME280;67783;51.656;16.106;2024-01-15T03:36:21;99391.59;;;3.93;69.42
77537;BME280;67783;51.656;16.106;2024-01-15T03:39:22;99400.48;;;3.92;69.54
77537;BME280;67783;51.656;16.106;2024-01-15T03:42:24;99398.69;;;3.92;69.74
77537;BME280;67783;51.656;16.106;2024-01-15T03:45:25;99394.43;;;3.90;69.85
77537;BME280;67783;51.656;16.106;2024-01-15T03:48:27;99392.74;;;3.89;69.68
77537;BME280;67783;51.656;16.106;2024-01-15T03:51:29;99387.53;;;3.87;69.81
77537;BME280;67783;51.656;16.106;2024-01-15T03:54:34;99386.90;;;3.84;70.56
77537;BME280;67783;51.656;16.106;2024-01-15T03:57:36;99388.69;;;3.83;69.95
77537;BME280;67783;51.656;16.106;2024-01-15T04:00:38;99386.25;;;3.80;70.34
77537;BME280;67783;51.656;16.106;2024-01-15T04:03:40;99381.88;;;3.79;70.09
77537;BME280;67783;51.656;16.106;2024-01-15T04:06:41;99381.13;;;3.77;70.09
77537;BME280;67783;51.656;16.106;2024-01-15T04:09:42;99387.28;;;3.78;70.27
77537;BME280;67783;51.656;16.106;2024-01-15T04:12:44;99386.55;;;3.76;70.19
77537;BME280;67783;51.656;16.106;2024-01-15T04:15:49;99387.28;;;3.78;70.82
77537;BME280;67783;51.656;16.106;2024-01-15T04:18:50;99382.96;;;3.77;70.29
77537;BME280;67783;51.656;16.106;2024-01-15T04:21:52;99393.73;;;3.73;70.33
77537;BME280;67783;51.656;16.106;2024-01-15T04:24:53;99394.51;;;3.76;70.08
77537;BME280;67783;51.656;16.106;2024-01-15T04:27:55;99395.45;;;3.75;70.31
77537;BME280;67783;51.656;16.106;2024-01-15T04:30:56;99388.25;;;3.77;70.09
77537;BME280;67783;51.656;16.106;2024-01-15T04:33:58;99393.56;;;3.77;70.30
77537;BME280;67783;51.656;16.106;2024-01-15T04:37:04;99391.85;;;3.76;70.82
77537;BME280;67783;51.656;16.106;2024-01-15T04:40:07;99386.55;;;3.76;70.33
77537;BME280;67783;51.656;16.106;2024-01-15T04:43:09;99375.30;;;3.72;70.45
77537;BME280;67783;51.656;16.106;2024-01-15T04:46:11;99376.05;;;3.74;70.16
77537;BME280;67783;51.656;16.106;2024-01-15T04:49:13;99393.73;;;3.73;70.25
77537;BME280;67783;51.656;16.106;2024-01-15T04:52:25;99381.46;;;3.73;70.28
77537;BME280;67783;51.656;16.106;2024-01-15T04:55:26;99373.17;;;3.77;69.95
77537;BME280;67783;51.656;16.106;2024-01-15T04:58:28;99376.80;;;3.76;70.03
77537;BME280;67783;51.656;16.106;2024-01-15T05:01:33;99376.59;;;3.79;69.90
77537;BME280;67783;51.656;16.106;2024-01-15T05:04:35;99373.84;;;3.81;70.00
77537;BME280;67783;51.656;16.106;2024-01-15T05:07:45;99367.57;;;3.82;70.20
77537;BME280;67783;51.656;16.106;2024-01-15T05:10:47;99358.67;;;3.83;69.94
77537;BME280;67783;51.656;16.106;2024-01-15T05:13:49;99371.94;;;3.83;69.88
77537;BME280;67783;51.656;16.106;2024-01-15T05:16:50;99365.78;;;3.82;69.72
77537;BME280;67783;51.656;16.106;2024-01-15T05:19:52;99376.90;;;3.75;69.72
77537;BME280;67783;51.656;16.106;2024-01-15T05:22:53;99385.14;;;3.70;69.65
77537;BME280;67783;51.656;16.106;2024-01-15T05:25:55;99372.95;;;3.67;69.59
77537;BME280;67783;51.656;16.106;2024-01-15T05:29:00;99386.94;;;3.69;69.42
77537;BME280;67783;51.656;16.106;2024-01-15T05:32:02;99390.15;;;3.75;69.41
77537;BME280;67783;51.656;16.106;2024-01-15T05:35:04;99390.91;;;3.77;69.22
77537;BME280;67783;51.656;16.106;2024-01-15T05:38:05;99376.68;;;3.78;69.22
77537;BME280;67783;51.656;16.106;2024-01-15T05:41:07;99375.74;;;3.79;69.08
77537;BME280;67783;51.656;16.106;2024-01-15T05:44:09;99375.52;;;3.82;68.91
77537;BME280;67783;51.656;16.106;2024-01-15T05:47:13;99382.74;;;3.80;68.79
77537;BME280;67783;51.656;16.106;2024-01-15T05:50:18;99376.68;;;3.78;68.24
77537;BME280;67783;51.656;16.106;2024-01-15T05:53:20;99370.86;;;3.73;68.70
77537;BME280;67783;51.656;16.106;2024-01-15T05:56:21;99370.19;;;3.69;68.41
77537;BME280;67783;51.656;16.106;2024-01-15T05:59:25;99382.61;;;3.68;68.65
77537;BME280;67783;51.656;16.106;2024-01-15T06:02:26;99370.39;;;3.66;68.31
77537;BME280;67783;51.656;16.106;2024-01-15T06:05:39;99359.24;;;3.61;67.53
77537;BME280;67783;51.656;16.106;2024-01-15T06:08:41;99364.66;;;3.59;68.25
77537;BME280;67783;51.656;16.106;2024-01-15T06:11:42;99372.05;;;3.54;67.92
77537;BME280;67783;51.656;16.106;2024-01-15T06:14:43;99366.84;;;3.53;68.19
77537;BME280;67783;51.656;16.106;2024-01-15T06:17:45;99353.71;;;3.51;67.89
77537;BME280;67783;51.656;16.106;2024-01-15T06:20:47;99353.51;;;3.54;67.85
77537;BME280;67783;51.656;16.106;2024-01-15T06:23:48;99322.48;;;3.30;67.57
77537;BME280;67783;51.656;16.106;2024-01-15T06:26:53;99373.55;;;3.58;67.20
77537;BME280;67783;51.656;16.106;2024-01-15T06:29:55;99381.21;;;3.63;67.62
77537;BME280;67783;51.656;16.106;2024-01-15T06:32:57;99383.73;;;3.64;67.09
77537;BME280;67783;51.656;16.106;2024-01-15T06:35:58;99375.78;;;3.64;67.45
77537;BME280;67783;51.656;16.106;2024-01-15T06:39:00;99386.09;;;3.69;67.20
77537;BME280;67783;51.656;16.106;2024-01-15T06:42:02;99378.90;;;3.71;67.07
77537;BME280;67783;51.656;16.106;2024-01-15T06:45:04;99381.46;;;3.73;67.19
77537;BME280;67783;51.656;16.106;2024-01-15T06:48:09;99385.79;;;3.73;66.43
77537;BME280;67783;51.656;16.106;2024-01-15T06:51:11;99382.84;;;3.78;67.22
77537;BME280;67783;51.656;16.106;2024-01-15T06:54:12;99387.20;;;3.79;66.92
77537;BME280;67783;51.656;16.106;2024-01-15T06:57:13;99393.91;;;3.85;67.09
77537;BME280;67783;51.656;16.106;2024-01-15T07:00:16;99393.91;;;3.85;66.98
77537;BME280;67783;51.656;16.106;2024-01-15T07:03:17;99388.38;;;3.88;67.10
77537;BME280;67783;51.656;16.106;2024-01-15T07:06:19;99397.28;;;3.87;67.08
77537;BME280;67783;51.656;16.106;2024-01-15T07:09:24;99388.38;;;3.88;66.59
77537;BME280;67783;51.656;16.106;2024-01-15T07:12:26;99395.27;;;3.90;67.02
77537;BME280;67783;51.656;16.106;2024-01-15T07:15:27;99389.13;;;3.90;66.83
77537;BME280;67783;51.656;16.106;2024-01-15T07:18:29;99388.09;;;3.92;66.97
77537;BME280;67783;51.656;16.106;2024-01-15T07:21:30;99382.02;;;3.90;66.86
77537;BME280;67783;51.656;16.106;2024-01-15T07:24:32;99389.13;;;3.90;66.84
77537;BME280;67783;51.656;16.106;2024-01-15T07:27:35;99377.88;;;3.86;66.79
77537;BME280;67783;51.656;16.106;2024-01-15T07:30:40;99385.74;;;3.88;66.12
77537;BME280;67783;51.656;16.106;2024-01-15T07:33:42;99382.33;;;3.86;66.60
77537;BME280;67783;51.656;16.106;2024-01-15T07:36:46;99391.34;;;3.83;66.31
77537;BME280;67783;51.656;16.106;2024-01-15T07:39:48;99382.44;;;3.84;66.81
77537;BME280;67783;51.656;16.106;2024-01-15T07:42:49;99398.44;;;3.83;66.33
77537;BME280;67783;51.656;16.106;2024-01-15T07:46:01;99399.94;;;3.87;66.05
77537;BME280;67783;51.656;16.106;2024-01-15T07:49:04;99394.63;;;3.87;66.47
77537;BME280;67783;51.656;16.106;2024-01-15T07:52:07;99392.93;;;3.86;66.23
77537;BME280;67783;51.656;16.106;2024-01-15T07:55:08;99401.64;;;3.88;66.46
77537;BME280;67783;51.656;16.106;2024-01-15T07:58:10;99390.27;;;3.86;66.50
77537;BME280;67783;51.656;16.106;2024-01-15T08:01:22;99385.09;;;3.84;66.16
77537;BME280;67783;51.656;16.106;2024-01-15T08:04:23;99385.95;;;3.85;66.29
77537;BME280;67783;51.656;16.106;2024-01-15T08:07:25;99378.95;;;3.84;65.80
77537;BME280;67783;51.656;16.106;2024-01-15T08:10:27;99379.59;;;3.87;66.19
77537;BME280;67783;51.656;16.106;2024-01-15T08:13:30;99381.29;;;3.88;65.98
77537;BME280;67783;51.656;16.106;2024-01-15T08:16:32;99383.81;;;3.90;66.08
77537;BME280;67783;51.656;16.106;2024-01-15T08:19:33;99392.53;;;3.92;65.82
77537;BME280;67783;51.656;16.106;2024-01-15T08:22:38;99381.71;;;3.95;65.03
77537;BME280;67783;51.656;16.106;2024-01-15T08:25:40;99385.00;;;3.98;65.69
77537;BME280;67783;51.656;16.106;2024-01-15T08:28:41;99385.00;;;3.98;65.36
77537;BME280;67783;51.656;16.106;2024-01-15T08:31:43;99390.00;;;4.03;65.75
77537;BME280;67783;51.656;16.106;2024-01-15T08:34:44;99387.35;;;4.03;65.40
77537;BME280;67783;51.656;16.106;2024-01-15T08:37:59;99388.20;;;4.03;64.92
77537;BME280;67783;51.656;16.106;2024-01-15T08:41:00;99386.20;;;4.07;65.53
77537;BME280;67783;51.656;16.106;2024-01-15T08:44:02;99396.80;;;4.07;64.90
77537;BME280;67783;51.656;16.106;2024-01-15T08:47:04;99386.73;;;4.12;65.08
77537;BME280;67783;51.656;16.106;2024-01-15T08:50:06;99377.84;;;4.13;65.03
77537;BME280;67783;51.656;16.106;2024-01-15T08:53:20;99378.70;;;4.13;64.52
77537;BME280;67783;51.656;16.106;2024-01-15T08:56:21;99388.99;;;4.18;65.10
77537;BME280;67783;51.656;16.106;2024-01-15T08:59:23;99380.06;;;4.19;64.86
77537;BME280;67783;51.656;16.106;2024-01-15T09:02:26;99403.62;;;4.24;64.83
77537;BME280;67783;51.656;16.106;2024-01-15T09:05:28;99393.14;;;4.22;64.47
77537;BME280;67783;51.656;16.106;2024-01-15T09:08:29;99389.42;;;4.25;64.55
77537;BME280;67783;51.656;16.106;2024-01-15T09:11:31;99383.16;;;4.26;64.55
77537;BME280;67783;51.656;16.106;2024-01-15T09:14:36;99374.57;;;4.22;63.50
77537;BME280;67783;51.656;16.106;2024-01-15T09:17:37;99361.81;;;4.27;64.31
77537;BME280;67783;51.656;16.106;2024-01-15T09:20:39;99366.50;;;4.36;63.76
77537;BME280;67783;51.656;16.106;2024-01-15T09:23:41;99375.09;;;4.52;64.13
77537;BME280;67783;51.656;16.106;2024-01-15T09:26:42;99374.56;;;4.60;63.36
77537;BME280;67783;51.656;16.106;2024-01-15T09:29:44;99381.48;;;4.75;63.60
77537;BME280;67783;51.656;16.106;2024-01-15T09:32:47;99399.43;;;4.84;63.28
77537;BME280;67783;51.656;16.106;2024-01-15T09:35:52;99397.27;;;4.89;61.65
77537;BME280;67783;51.656;16.106;2024-01-15T09:38:54;99392.39;;;4.96;63.15
77537;BME280;67783;51.656;16.106;2024-01-15T09:41:56;99397.38;;;5.00;62.03
77537;BME280;67783;51.656;16.106;2024-01-15T09:44:59;99403.00;;;5.08;62.95
77537;BME280;67783;51.656;16.106;2024-01-15T09:48:01;99397.36;;;5.13;62.49
77537;BME280;67783;51.656;16.106;2024-01-15T09:51:13;99379.48;;;5.15;60.88
77537;BME280;67783;51.656;16.106;2024-01-15T09:54:15;99400.65;;;5.17;62.22
77537;BME280;67783;51.656;16.106;2024-01-15T09:57:18;99394.48;;;5.16;61.71
77537;BME280;67783;51.656;16.106;2024-01-15T10:00:21;99396.68;;;5.22;62.03
77537;BME280;67783;51.656;16.106;2024-01-15T10:03:23;99399.34;;;5.22;62.04
77537;BME280;67783;51.656;16.106;2024-01-15T10:06:33;99395.73;;;5.23;60.33
77537;BME280;67783;51.656;16.106;2024-01-15T10:09:35;99408.91;;;5.25;61.97
77537;BME280;67783;51.656;16.106;2024-01-15T10:12:37;99413.47;;;5.23;61.12
77537;BME280;67783;51.656;16.106;2024-01-15T10:15:39;99401.27;;;5.20;61.88
77537;BME280;67783;51.656;16.106;2024-01-15T10:18:41;99412.85;;;5.19;61.75
77537;BME280;67783;51.656;16.106;2024-01-15T10:21:54;99415.73;;;5.16;60.42
77537;BME280;67783;51.656;16.106;2024-01-15T10:24:56;99418.29;;;5.18;61.85
77537;BME280;67783;51.656;16.106;2024-01-15T10:28:02;99415.73;;;5.16;61.22
77537;BME280;67783;51.656;16.106;2024-01-15T10:31:04;99407.66;;;5.18;61.74
77537;BME280;67783;51.656;16.106;2024-01-15T10:34:10;99410.19;;;5.19;61.03
77537;BME280;67783;51.656;16.106;2024-01-15T10:37:15;99420.59;;;5.22;59.99
77537;BME280;67783;51.656;16.106;2024-01-15T10:40:16;99402.09;;;5.33;61.07
77537;BME280;67783;51.656;16.106;2024-01-15T10:43:20;99398.25;;;5.37;60.76
77537;BME280;67783;51.656;16.106;2024-01-15T10:46:22;99392.70;;;5.40;61.13
77537;BME280;67783;51.656;16.106;2024-01-15T10:49:24;99394.84;;;5.35;60.63
77537;BME280;67783;51.656;16.106;2024-01-15T10:52:36;99397.39;;;5.37;59.85
77537;BME280;67783;51.656;16.106;2024-01-15T10:55:38;99420.56;;;5.35;60.66
77537;BME280;67783;51.656;16.106;2024-01-15T10:58:44;99412.92;;;5.30;60.62
77537;BME280;67783;51.656;16.106;2024-01-15T11:01:47;99412.29;;;5.27;60.73
77537;BME280;67783;51.656;16.106;2024-01-15T11:04:49;99404.65;;;5.22;60.92
77537;BME280;67783;51.656;16.106;2024-01-15T11:07:56;99401.50;;;5.17;59.17
77537;BME280;67783;51.656;16.106;2024-01-15T11:10:58;99414.78;;;5.17;60.93
77537;BME280;67783;51.656;16.106;2024-01-15T11:13:59;99416.05;;;5.11;60.31
77537;BME280;67783;51.656;16.106;2024-01-15T11:17:01;99419.33;;;5.15;60.97
77537;BME280;67783;51.656;16.106;2024-01-15T11:20:06;99408.81;;;5.13;60.85
77537;BME280;67783;51.656;16.106;2024-01-15T11:24:07;99410.42;;;5.16;59.41
77537;BME280;67783;51.656;16.106;2024-01-15T11:29:42;99411.04;;;5.20;60.69
77537;BME280;67783;51.656;16.106;2024-01-15T11:32:47;99406.34;;;5.23;59.79
77537;BME280;67783;51.656;16.106;2024-01-15T11:35:49;99370.02;;;5.24;60.62
77537;BME280;67783;51.656;16.106;2024-01-15T11:38:52;99381.92;;;5.18;60.27
77537;BME280;67783;51.656;16.106;2024-01-15T11:42:02;99397.85;;;5.18;60.77
77537;BME280;67783;51.656;16.106;2024-01-15T11:45:07;99384.91;;;5.13;60.56
77537;BME280;67783;51.656;16.106;2024-01-15T11:48:15;99389.06;;;5.18;59.95
77537;BME280;67783;51.656;16.106;2024-01-15T11:51:18;99396.91;;;5.19;60.10
77537;BME280;67783;51.656;16.106;2024-01-15T11:54:22;99369.83;;;5.14;60.33
77537;BME280;67783;51.656;16.106;2024-01-15T12:00:40;99355.09;;;4.97;60.65
77537;BME280;67783;51.656;16.106;2024-01-15T12:03:44;99369.22;;;4.98;59.75
77537;BME280;67783;51.656;16.106;2024-01-15T12:06:48;99368.04;;;5.02;60.76
77537;BME280;67783;51.656;16.106;2024-01-15T12:09:49;99379.42;;;5.04;60.17
77537;BME280;67783;51.656;16.106;2024-01-15T12:13:03;99361.23;;;5.10;60.57
77537;BME280;67783;51.656;16.106;2024-01-15T12:16:07;99378.01;;;5.11;60.43
77537;BME280;67783;51.656;16.106;2024-01-15T12:19:12;99370.05;;;5.11;59.54
77537;BME280;67783;51.656;16.106;2024-01-15T12:22:15;99360.28;;;5.11;60.01
77537;BME280;67783;51.656;16.106;2024-01-15T12:25:16;99354.34;;;5.08;59.96
77537;BME280;67783;51.656;16.106;2024-01-15T12:28:18;99371.98;;;5.09;60.42
77537;BME280;67783;51.656;16.106;2024-01-15T12:31:20;99345.42;;;5.09;60.20
77537;BME280;67783;51.656;16.106;2024-01-15T12:34:21;99348.42;;;4.92;60.16
77537;BME280;67783;51.656;16.106;2024-01-15T12:37:24;99354.56;;;5.05;60.22
77537;BME280;67783;51.656;16.106;2024-01-15T12:40:28;99343.75;;;4.95;58.59
77537;BME280;67783;51.656;16.106;2024-01-15T12:43:29;99358.41;;;5.01;60.10
77537;BME280;67783;51.656;16.106;2024-01-15T12:46:31;99362.01;;;5.00;59.93
77537;BME280;67783;51.656;16.106;2024-01-15T12:49:33;99347.78;;;5.01;60.14
77537;BME280;67783;51.656;16.106;2024-01-15T12:52:37;99333.12;;;4.95;60.25
77537;BME280;67783;51.656;16.106;2024-01-15T12:55:48;99335.02;;;4.93;59.35
77537;BME280;67783;51.656;16.106;2024-01-15T12:58:50;99339.48;;;4.93;60.27
77537;BME280;67783;51.656;16.106;2024-01-15T13:01:52;99336.82;;;4.93;59.95
77537;BME280;67783;51.656;16.106;2024-01-15T13:04:53;99330.56;;;4.94;60.00
77537;BME280;67783;51.656;16.106;2024-01-15T13:07:57;99329.62;;;4.95;60.11
77537;BME280;67783;51.656;16.106;2024-01-15T13:11:09;99315.39;;;4.96;59.54
77537;BME280;67783;51.656;16.106;2024-01-15T13:14:12;99317.70;;;5.00;60.19
77537;BME280;67783;51.656;16.106;2024-01-15T13:17:14;99320.77;;;5.07;59.76
77537;BME280;67783;51.656;16.106;2024-01-15T13:20:16;99321.05;;;5.15;60.06
77537;BME280;67783;51.656;16.106;2024-01-15T13:23:17;99326.13;;;5.18;59.73
77537;BME280;67783;51.656;16.106;2024-01-15T13:26:30;99331.25;;;5.21;58.86
77537;BME280;67783;51.656;16.106;2024-01-15T13:29:31;99315.40;;;5.20;59.70
77537;BME280;67783;51.656;16.106;2024-01-15T13:32:34;99324.66;;;5.14;59.43
77537;BME280;67783;51.656;16.106;2024-01-15T13:35:36;99318.86;;;5.09;59.75
77537;BME280;67783;51.656;16.106;2024-01-15T13:38:38;99328.73;;;5.07;59.66
77537;BME280;67783;51.656;16.106;2024-01-15T13:41:39;99314.59;;;5.06;59.51
77537;BME280;67783;51.656;16.106;2024-01-15T13:44:41;99326.30;;;5.04;59.68
77537;BME280;67783;51.656;16.106;2024-01-15T13:47:46;99326.54;;;5.01;58.74
77537;BME280;67783;51.656;16.106;2024-01-15T13:50:47;99335.23;;;5.03;59.88
77537;BME280;67783;51.656;16.106;2024-01-15T13:53:51;99348.40;;;5.04;59.24
77537;BME280;67783;51.656;16.106;2024-01-15T13:56:53;99338.73;;;5.03;59.82
77537;BME280;67783;51.656;16.106;2024-01-15T13:59:55;99332.79;;;5.00;59.67
77537;BME280;67783;51.656;16.106;2024-01-15T14:03:07;99331.20;;;4.97;59.34
77537;BME280;67783;51.656;16.106;2024-01-15T14:06:09;99342.03;;;4.94;59.83
77537;BME280;67783;51.656;16.106;2024-01-15T14:09:12;99337.81;;;4.92;59.56
77537;BME280;67783;51.656;16.106;2024-01-15T14:12:15;99353.73;;;4.92;59.97
77537;BME280;67783;51.656;16.106;2024-01-15T14:15:17;99350.32;;;4.90;59.81
77537;BME280;67783;51.656;16.106;2024-01-15T14:18:27;99352.89;;;4.91;59.13
77537;BME280;67783;51.656;16.106;2024-01-15T14:21:29;99353.73;;;4.92;59.84
77537;BME280;67783;51.656;16.106;2024-01-15T14:24:30;99353.94;;;4.89;59.89
77537;BME280;67783;51.656;16.106;2024-01-15T14:27:32;99371.80;;;4.87;60.01
77537;BME280;67783;51.656;16.106;2024-01-15T14:30:34;99384.45;;;4.83;60.04
77537;BME280;67783;51.656;16.106;2024-01-15T14:33:48;99389.85;;;4.82;59.87
77537;BME280;67783;51.656;16.106;2024-01-15T14:36:49;99398.76;;;4.81;60.43
77537;BME280;67783;51.656;16.106;2024-01-15T14:40:39;99403.57;;;4.76;60.55
77537;BME280;67783;51.656;16.106;2024-01-15T14:43:40;99409.83;;;4.75;60.42
77537;BME280;67783;51.656;16.106;2024-01-15T14:46:42;99408.02;;;4.75;60.72
77537;BME280;67783;51.656;16.106;2024-01-15T14:49:43;99410.87;;;4.72;60.68
77537;BME280;67783;51.656;16.106;2024-01-15T14:52:45;99412.48;;;4.75;60.78
77537;BME280;67783;51.656;16.106;2024-01-15T14:55:48;99417.25;;;4.70;60.79
77537;BME280;67783;51.656;16.106;2024-01-15T14:58:53;99418.96;;;4.71;60.59
77537;BME280;67783;51.656;16.106;2024-01-15T15:01:55;99417.88;;;4.73;60.84
77537;BME280;67783;51.656;16.106;2024-01-15T15:04:58;99426.71;;;4.74;60.86
77537;BME280;67783;51.656;16.106;2024-01-15T15:08:00;99424.68;;;4.77;60.98
77537;BME280;67783;51.656;16.106;2024-01-15T15:11:08;99428.95;;;4.80;61.13
77537;BME280;67783;51.656;16.106;2024-01-15T15:14:14;99420.98;;;4.80;61.26
77537;BME280;67783;51.656;16.106;2024-01-15T15:17:15;99429.67;;;4.82;61.41
77537;BME280;67783;51.656;16.106;2024-01-15T15:20:17;99458.15;;;4.80;62.03
77537;BME280;67783;51.656;16.106;2024-01-15T15:23:20;99456.98;;;4.84;61.79
77537;BME280;67783;51.656;16.106;2024-01-15T15:26:21;99467.79;;;4.81;62.04
77537;BME280;67783;51.656;16.106;2024-01-15T15:29:23;99448.03;;;4.85;62.00
77537;BME280;67783;51.656;16.106;2024-01-15T15:32:26;99471.20;;;4.83;62.20
77537;BME280;67783;51.656;16.106;2024-01-15T15:35:31;99461.66;;;4.80;62.36
77537;BME280;67783;51.656;16.106;2024-01-15T15:38:32;99466.20;;;4.78;62.25
77537;BME280;67783;51.656;16.106;2024-01-15T15:41:34;99482.99;;;4.79;62.41
77537;BME280;67783;51.656;16.106;2024-01-15T15:44:35;99481.29;;;4.78;62.35
77537;BME280;67783;51.656;16.106;2024-01-15T15:47:43;99483.30;;;4.74;62.59
77537;BME280;67783;51.656;16.106;2024-01-15T15:50:51;99468.54;;;4.70;62.89
77537;BME280;67783;51.656;16.106;2024-01-15T15:53:53;99496.97;;;4.68;62.69
77537;BME280;67783;51.656;16.106;2024-01-15T15:56:55;99505.06;;;4.67;63.07
77537;BME280;67783;51.656;16.106;2024-01-15T15:59:56;99506.01;;;4.65;62.98
77537;BME280;67783;51.656;16.106;2024-01-15T16:02:58;99509.82;;;4.61;63.07
77537;BME280;67783;51.656;16.106;2024-01-15T16:06:00;99507.94;;;4.63;63.00
77537;BME280;67783;51.656;16.106;2024-01-15T16:09:01;99506.45;;;4.59;63.20
77537;BME280;67783;51.656;16.106;2024-01-15T16:12:07;99520.66;;;4.58;63.82
77537;BME280;67783;51.656;16.106;2024-01-15T16:15:20;99526.81;;;4.59;63.56
77537;BME280;67783;51.656;16.106;2024-01-15T16:18:22;99535.81;;;4.56;63.76